createdAt,value
2022-10-01T00:00:55.758Z,8.68
2022-10-01T00:03:24.560Z,8.98
2022-10-01T00:06:14.901Z,8.95
2022-10-01T00:08:43.233Z,8.50
2022-10-01T00:11:15.387Z,8.82
2022-10-01T00:13:43.289Z,7.60
2022-10-01T00:16:16.469Z,6.82
2022-10-01T00:18:45.915Z,6.95
2022-10-01T00:21:19.542Z,7.35
2022-10-01T00:23:46.575Z,6.90
2022-10-01T00:26:17.119Z,6.53
2022-10-01T00:28:46.212Z,7.45
2022-10-01T00:31:14.915Z,6.85
2022-10-01T00:33:42.445Z,7.80
2022-10-01T00:36:11.061Z,8.70
2022-10-01T00:38:40.373Z,9.02
2022-10-01T00:41:08.642Z,8.65
2022-10-01T00:43:40.298Z,8.32
2022-10-01T00:48:47.995Z,8.80
2022-10-01T00:51:15.067Z,8.63
2022-10-01T00:53:44.045Z,8.20
2022-10-01T00:56:10.925Z,7.70
2022-10-01T00:58:38.678Z,9.18
2022-10-01T01:01:05.741Z,7.75
2022-10-01T01:03:32.526Z,7.55
2022-10-01T01:05:59.455Z,8.40
2022-10-01T01:08:26.274Z,8.85
2022-10-01T01:11:04.893Z,8.20
2022-10-01T01:14:11.117Z,8.35
2022-10-01T01:16:49.679Z,8.75
2022-10-01T01:19:22.777Z,9.27
2022-10-01T01:21:56.912Z,9.45
2022-10-01T01:24:32.670Z,9.55
2022-10-01T01:27:07.833Z,8.23
2022-10-01T01:29:54.518Z,8.27
2022-10-01T01:32:31.209Z,8.30
2022-10-01T01:35:02.479Z,8.00
2022-10-01T01:37:35.783Z,9.60
2022-10-01T01:40:05.121Z,8.65
2022-10-01T01:42:37.355Z,8.70
2022-10-01T01:45:10.009Z,8.55
2022-10-01T01:47:40.004Z,9.43
2022-10-01T01:50:08.303Z,8.65
2022-10-01T01:52:35.623Z,8.40
2022-10-01T01:55:07.527Z,8.98
2022-10-01T01:57:39.521Z,9.43
2022-10-01T02:00:06.815Z,9.15
2022-10-01T02:02:38.264Z,10.00
2022-10-01T02:07:43.586Z,9.15
2022-10-01T02:10:40.868Z,9.38
2022-10-01T02:13:35.349Z,9.70
2022-10-01T02:16:04.880Z,10.23
2022-10-01T02:18:43.390Z,8.93
2022-10-01T02:21:34.315Z,9.32
2022-10-01T02:24:05.153Z,9.82
2022-10-01T02:26:35.196Z,9.27
2022-10-01T02:29:06.974Z,9.40
2022-10-01T02:31:36.033Z,9.23
2022-10-01T02:34:09.688Z,8.65
2022-10-01T02:36:41.289Z,8.63
2022-10-01T02:39:10.662Z,8.13
2022-10-01T02:41:37.661Z,9.00
2022-10-01T02:44:10.797Z,8.65
2022-10-01T02:47:02.351Z,8.32
2022-10-01T02:49:31.217Z,9.90
2022-10-01T02:52:06.905Z,8.27
2022-10-01T02:54:33.564Z,8.52
2022-10-01T02:57:19.042Z,8.95
2022-10-01T02:59:45.851Z,8.10
2022-10-01T03:02:12.797Z,8.10
2022-10-01T03:04:39.566Z,8.38
2022-10-01T03:07:06.819Z,8.02
2022-10-01T03:09:35.073Z,7.82
2022-10-01T03:12:02.078Z,8.48
2022-10-01T03:14:29.493Z,8.65
2022-10-01T03:16:56.154Z,8.27
2022-10-01T03:19:22.920Z,8.98
2022-10-01T03:21:49.595Z,8.77
2022-10-01T03:24:16.413Z,8.25
2022-10-01T03:26:44.022Z,8.50
2022-10-01T03:29:11.456Z,8.25
2022-10-01T03:31:38.570Z,8.55
2022-10-01T03:34:05.454Z,8.63
2022-10-01T03:36:32.310Z,8.73
2022-10-01T03:38:59.339Z,9.05
2022-10-01T03:41:26.077Z,8.95
2022-10-01T03:43:55.108Z,9.23
2022-10-01T03:46:26.411Z,9.80
2022-10-01T03:48:53.140Z,9.48
2022-10-01T03:51:20.947Z,9.70
2022-10-01T03:53:48.113Z,9.95
2022-10-01T03:56:16.412Z,9.85
2022-10-01T03:58:43.066Z,9.35
2022-10-01T04:01:09.942Z,8.60
2022-10-01T04:03:36.864Z,13.05
2022-10-01T04:06:03.637Z,14.38
2022-10-01T04:08:30.449Z,13.65
2022-10-01T04:10:57.187Z,13.98
2022-10-01T04:13:23.942Z,11.20
2022-10-01T04:15:50.658Z,11.65
2022-10-01T04:18:17.554Z,11.52
2022-10-01T04:20:44.284Z,10.50
2022-10-01T04:23:10.991Z,10.13
2022-10-01T04:25:37.753Z,10.40
2022-10-01T04:28:07.003Z,12.60
2022-10-01T04:30:37.131Z,12.05
2022-10-01T04:33:05.304Z,10.00
2022-10-01T04:35:32.484Z,10.55
2022-10-01T04:38:13.576Z,10.65
2022-10-01T04:40:40.312Z,10.88
2022-10-01T04:43:10.131Z,10.60
2022-10-01T04:45:38.001Z,10.10
2022-10-01T04:48:05.493Z,8.98
2022-10-01T04:50:32.497Z,8.32
2022-10-01T04:52:59.410Z,8.70
2022-10-01T04:55:26.399Z,7.32
2022-10-01T04:57:53.174Z,7.43
2022-10-01T05:00:24.807Z,7.35
2022-10-01T05:02:54.244Z,7.53
2022-10-01T05:05:23.887Z,7.45
2022-10-01T05:07:51.004Z,7.07
2022-10-01T05:10:20.661Z,7.30
2022-10-01T05:12:49.425Z,6.95
2022-10-01T05:15:17.197Z,8.30
2022-10-01T05:17:44.636Z,9.25
2022-10-01T05:20:18.120Z,9.32
2022-10-01T05:22:45.677Z,9.82
2022-10-01T05:25:12.550Z,8.65
2022-10-01T05:27:40.520Z,9.82
2022-10-01T05:30:09.202Z,8.68
2022-10-01T05:32:37.004Z,8.85
2022-10-01T05:35:05.576Z,8.05
2022-10-01T05:37:32.275Z,6.95
2022-10-01T05:39:59.045Z,5.97
2022-10-01T05:42:26.125Z,5.25
2022-10-01T05:44:52.928Z,6.25
2022-10-01T05:47:20.824Z,6.35
2022-10-01T05:49:47.602Z,6.20
2022-10-01T05:52:16.514Z,5.25
2022-10-01T05:54:43.615Z,5.72
2022-10-01T05:57:11.011Z,5.40
2022-10-01T05:59:37.826Z,6.13
2022-10-01T06:02:05.055Z,6.03
2022-10-01T06:04:31.984Z,5.68
2022-10-01T06:06:59.114Z,5.22
2022-10-01T06:09:25.887Z,5.40
2022-10-01T06:11:52.889Z,5.03
2022-10-01T06:14:19.697Z,5.13
2022-10-01T06:16:47.209Z,5.20
2022-10-01T06:19:14.170Z,4.85
2022-10-01T06:21:40.967Z,5.07
2022-10-01T06:24:07.696Z,4.63
2022-10-01T06:26:34.600Z,3.92
2022-10-01T06:29:03.657Z,4.63
2022-10-01T06:31:30.796Z,5.00
2022-10-01T06:33:57.617Z,4.55
2022-10-01T06:36:24.465Z,4.20
2022-10-01T06:38:51.920Z,4.82
2022-10-01T06:41:18.823Z,5.50
2022-10-01T06:43:45.839Z,5.30
2022-10-01T06:46:12.628Z,4.80
2022-10-01T06:48:39.452Z,4.60
2022-10-01T06:51:06.397Z,3.85
2022-10-01T06:53:33.293Z,4.88
2022-10-01T06:56:07.648Z,5.95
2022-10-01T06:58:34.578Z,7.60
2022-10-01T07:01:04.041Z,9.75
2022-10-01T07:03:31.564Z,8.52
2022-10-01T07:06:05.316Z,5.20
2022-10-01T07:08:33.414Z,5.90
2022-10-01T07:11:03.520Z,4.95
2022-10-01T07:13:30.614Z,4.78
2022-10-01T07:15:57.585Z,5.20
2022-10-01T07:18:24.353Z,3.75
2022-10-01T07:20:51.332Z,3.90
2022-10-01T07:23:18.523Z,5.85
2022-10-01T07:25:45.822Z,6.78
2022-10-01T07:28:18.732Z,8.32
2022-10-01T07:30:48.624Z,7.28
2022-10-01T07:33:18.864Z,5.50
2022-10-01T07:35:48.064Z,3.35
2022-10-01T07:38:15.019Z,3.15
2022-10-01T07:40:42.114Z,3.50
2022-10-01T07:43:09.682Z,3.25
2022-10-01T07:45:36.557Z,5.22
2022-10-01T07:48:03.779Z,8.93
2022-10-01T07:50:30.831Z,6.72
2022-10-01T07:52:59.423Z,6.10
2022-10-01T07:55:30.937Z,5.35
2022-10-01T07:58:00.175Z,3.45
2022-10-01T08:00:28.183Z,3.72
2022-10-01T08:02:56.331Z,3.67
2022-10-01T08:05:26.020Z,8.30
2022-10-01T08:07:54.178Z,7.38
2022-10-01T08:10:23.337Z,4.70
2022-10-01T08:12:50.201Z,3.45
2022-10-01T08:15:18.254Z,3.40
2022-10-01T08:17:45.686Z,20.83
2022-10-01T08:20:14.127Z,17.40
2022-10-01T08:22:42.404Z,30.83
2022-10-01T08:25:10.334Z,12.73
2022-10-01T08:27:37.236Z,6.40
2022-10-01T08:30:05.160Z,3.47
2022-10-01T08:32:32.280Z,5.25
2022-10-01T08:35:01.331Z,2.40
2022-10-01T08:37:29.421Z,2.10
2022-10-01T08:39:57.617Z,1.88
2022-10-01T08:42:42.331Z,3.47
2022-10-01T08:45:17.719Z,3.50
2022-10-01T08:47:52.972Z,2.58
2022-10-01T08:50:42.774Z,3.13
2022-10-01T08:53:23.563Z,3.05
2022-10-01T08:55:52.100Z,2.00
2022-10-01T08:58:29.602Z,3.20
2022-10-01T09:00:57.023Z,7.00
2022-10-01T09:03:23.991Z,3.35
2022-10-01T09:06:09.018Z,2.72
2022-10-01T09:08:47.449Z,1.55
2022-10-01T09:11:24.075Z,1.88
2022-10-01T09:14:01.213Z,1.92
2022-10-01T09:16:37.748Z,1.67
2022-10-01T09:19:29.946Z,1.65
2022-10-01T09:21:59.194Z,1.98
2022-10-01T09:24:31.832Z,2.08
2022-10-01T09:26:58.752Z,1.58
2022-10-01T09:29:36.335Z,1.90
2022-10-01T09:32:06.291Z,2.63
2022-10-01T09:34:42.132Z,1.60
2022-10-01T09:37:28.805Z,1.73
2022-10-01T09:40:33.906Z,1.58
2022-10-01T09:43:01.208Z,2.05
2022-10-01T09:45:28.865Z,1.70
2022-10-01T09:48:04.148Z,1.83
2022-10-01T09:50:43.491Z,1.70
2022-10-01T09:53:20.283Z,1.67
2022-10-01T09:55:56.137Z,1.63
2022-10-01T09:58:26.841Z,1.58
2022-10-01T10:00:54.828Z,1.63
2022-10-01T10:03:28.902Z,1.55
2022-10-01T10:05:56.947Z,1.90
2022-10-01T10:08:28.610Z,1.83
2022-10-01T10:11:10.944Z,1.73
2022-10-01T10:13:41.967Z,1.88
2022-10-01T10:16:17.056Z,1.42
2022-10-01T10:18:48.872Z,1.55
2022-10-01T10:21:21.057Z,1.90
2022-10-01T10:23:54.501Z,1.65
2022-10-01T10:26:33.846Z,1.60
2022-10-01T10:29:02.894Z,1.52
2022-10-01T10:31:42.936Z,2.00
2022-10-01T10:34:23.948Z,2.00
2022-10-01T10:36:58.314Z,1.60
2022-10-01T10:39:26.382Z,1.90
2022-10-01T10:41:54.147Z,2.33
2022-10-01T10:44:24.092Z,1.70
2022-10-01T10:46:53.977Z,1.67
2022-10-01T10:49:29.765Z,1.83
2022-10-01T10:51:58.958Z,1.77
2022-10-01T10:54:31.628Z,1.70
2022-10-01T10:57:02.704Z,2.05
2022-10-01T10:59:34.866Z,1.63
2022-10-01T11:02:05.032Z,2.00
2022-10-01T11:04:40.290Z,1.63
2022-10-01T11:07:07.681Z,1.65
2022-10-01T11:10:01.019Z,1.60
2022-10-01T11:13:09.041Z,1.70
2022-10-01T11:15:53.979Z,1.50
2022-10-01T11:18:58.631Z,1.75
2022-10-01T11:21:56.822Z,1.90
2022-10-01T11:24:42.107Z,1.55
2022-10-01T11:27:36.411Z,1.90
2022-10-01T11:30:26.037Z,2.00
2022-10-01T11:33:05.252Z,1.70
2022-10-01T11:35:42.770Z,1.50
2022-10-01T11:38:24.665Z,1.60
2022-10-01T11:41:19.264Z,1.40
2022-10-01T11:44:06.333Z,1.80
2022-10-01T11:47:02.427Z,1.85
2022-10-01T11:49:55.978Z,1.60
2022-10-01T11:52:44.335Z,1.67
2022-10-01T11:55:37.711Z,1.60
2022-10-01T11:58:30.886Z,1.88
2022-10-01T12:01:16.439Z,1.60
2022-10-01T12:04:01.388Z,1.63
2022-10-01T12:06:41.524Z,1.80
2022-10-01T12:09:23.990Z,2.00
2022-10-01T12:12:02.722Z,1.63
2022-10-01T12:15:04.097Z,2.00
2022-10-01T12:17:41.398Z,1.70
2022-10-01T12:20:20.802Z,1.70
2022-10-01T12:22:48.898Z,1.90
2022-10-01T12:25:15.846Z,2.13
2022-10-01T12:27:56.164Z,1.75
2022-10-01T12:30:31.403Z,2.00
2022-10-01T12:33:31.393Z,2.03
2022-10-01T12:36:16.678Z,1.67
2022-10-01T12:38:52.247Z,1.95
2022-10-01T12:41:18.979Z,1.55
2022-10-01T12:43:51.419Z,1.90
2022-10-01T12:46:31.481Z,1.92
2022-10-01T12:49:22.433Z,1.73
2022-10-01T12:52:04.434Z,1.50
2022-10-01T12:54:43.303Z,1.67
2022-10-01T12:57:23.102Z,1.50
2022-10-01T13:00:11.282Z,1.85
2022-10-01T13:02:58.926Z,1.30
2022-10-01T13:06:01.616Z,1.58
2022-10-01T13:08:38.272Z,1.50
2022-10-01T13:11:20.748Z,1.52
2022-10-01T13:13:52.659Z,1.60
2022-10-01T13:16:33.753Z,1.30
2022-10-01T13:21:42.543Z,1.42
2022-10-01T13:24:15.009Z,1.17
2022-10-01T13:27:10.356Z,1.48
2022-10-01T13:30:03.855Z,1.52
2022-10-01T13:32:37.612Z,1.40
2022-10-01T13:35:41.291Z,1.45
2022-10-01T13:38:29.260Z,1.63
2022-10-01T13:41:01.967Z,1.75
2022-10-01T13:43:30.974Z,1.30
2022-10-01T13:46:10.574Z,1.98
2022-10-01T13:48:46.933Z,1.75
2022-10-01T13:51:14.989Z,1.40
2022-10-01T13:53:41.722Z,1.70
2022-10-01T13:56:12.366Z,1.45
2022-10-01T13:58:45.183Z,1.40
2022-10-01T14:01:24.001Z,1.45
2022-10-01T14:04:09.323Z,1.27
2022-10-01T14:06:36.454Z,1.67
2022-10-01T14:09:06.318Z,1.30
2022-10-01T14:11:54.873Z,1.30
2022-10-01T14:14:58.583Z,1.65
2022-10-01T14:17:29.893Z,1.63
2022-10-01T14:22:30.003Z,1.30
2022-10-01T14:25:31.697Z,3.72
2022-10-01T14:28:10.416Z,1.42
2022-10-01T14:31:07.639Z,1.20
2022-10-01T14:33:53.119Z,1.50
2022-10-01T14:36:42.842Z,1.83
2022-10-01T14:39:19.694Z,1.73
2022-10-01T14:41:51.687Z,1.60
2022-10-01T14:44:22.207Z,1.42
2022-10-01T14:46:54.527Z,2.03
2022-10-01T14:49:23.616Z,1.95
2022-10-01T14:51:53.260Z,1.63
2022-10-01T14:54:20.668Z,3.58
2022-10-01T14:56:48.263Z,5.70
2022-10-01T14:59:28.003Z,1.48
2022-10-01T15:01:58.534Z,4.18
2022-10-01T15:04:25.655Z,2.50
2022-10-01T15:06:52.486Z,5.45
2022-10-01T15:09:19.679Z,10.50
2022-10-01T15:11:51.336Z,3.95
2022-10-01T15:14:24.685Z,6.57
2022-10-01T15:16:52.229Z,6.63
2022-10-01T15:19:23.121Z,3.20
2022-10-01T15:21:50.237Z,2.85
2022-10-01T15:24:38.125Z,4.88
2022-10-01T15:27:06.800Z,2.50
2022-10-01T15:29:34.065Z,1.80
2022-10-01T15:32:03.531Z,2.80
2022-10-01T15:34:31.312Z,6.38
2022-10-01T15:37:02.306Z,2.30
2022-10-01T15:39:32.087Z,3.22
2022-10-01T15:42:01.828Z,1.90
2022-10-01T15:44:42.979Z,2.80
2022-10-01T16:20:49.090Z,2.75
2022-10-01T16:23:37.168Z,2.00
2022-10-01T16:26:06.395Z,2.25
2022-10-01T16:28:36.109Z,2.13
2022-10-01T16:31:04.522Z,2.17
2022-10-01T16:33:31.318Z,2.10
2022-10-01T16:36:10.943Z,2.00
2022-10-01T16:38:37.759Z,2.28
2022-10-01T16:41:05.644Z,1.90
2022-10-01T16:43:32.705Z,2.20
2022-10-01T16:45:59.556Z,2.40
2022-10-01T16:48:26.955Z,2.50
2022-10-01T16:50:54.319Z,7.57
2022-10-01T16:53:21.155Z,7.80
2022-10-01T16:55:48.270Z,8.98
2022-10-01T16:58:15.915Z,12.90
2022-10-01T17:00:43.461Z,11.82
2022-10-01T17:03:16.087Z,8.10
2022-10-01T17:05:43.777Z,8.27
2022-10-01T17:08:13.820Z,8.27
2022-10-01T17:10:45.379Z,9.38
2022-10-01T17:13:13.434Z,8.18
2022-10-01T17:15:42.234Z,9.50
2022-10-01T17:18:09.738Z,10.90
2022-10-01T17:20:40.321Z,11.95
2022-10-01T17:23:07.492Z,12.40
2022-10-01T17:25:36.937Z,10.02
2022-10-01T17:28:06.210Z,12.63
2022-10-01T17:30:33.347Z,10.18
2022-10-01T17:33:01.443Z,9.88
2022-10-01T17:35:29.890Z,8.70
2022-10-01T17:37:57.199Z,8.40
2022-10-01T17:40:24.013Z,6.82
2022-10-01T17:42:50.730Z,8.02
2022-10-01T17:45:17.669Z,9.65
2022-10-01T17:47:49.236Z,10.52
2022-10-01T17:50:17.009Z,10.27
2022-10-01T17:52:46.630Z,11.00
2022-10-01T17:55:13.705Z,10.30
2022-10-01T17:57:40.470Z,10.18
2022-10-01T18:00:08.305Z,12.23
2022-10-01T18:02:41.958Z,13.32
2022-10-01T18:05:12.430Z,11.95
2022-10-01T18:07:39.641Z,13.73
2022-10-01T18:10:08.839Z,13.15
2022-10-01T18:12:35.586Z,13.40
2022-10-01T18:15:02.356Z,10.68
2022-10-01T18:17:32.105Z,10.88
2022-10-01T18:19:59.155Z,10.38
2022-10-01T18:22:27.506Z,9.80
2022-10-01T18:24:54.707Z,10.98
2022-10-01T18:27:21.562Z,10.07
2022-10-01T18:29:48.430Z,10.38
2022-10-01T18:32:27.269Z,11.52
2022-10-01T18:35:01.671Z,12.23
2022-10-01T18:38:03.889Z,12.90
2022-10-01T18:40:36.966Z,10.82
2022-10-01T18:43:17.499Z,14.90
2022-10-01T18:45:53.827Z,14.55
2022-10-01T18:48:32.595Z,16.05
2022-10-01T18:51:26.673Z,15.85
2022-10-01T18:54:19.660Z,16.55
2022-10-01T18:57:20.922Z,17.42
2022-10-01T18:59:56.645Z,17.35
2022-10-01T19:03:04.587Z,17.63
2022-10-01T19:05:43.381Z,18.50
2022-10-01T19:08:29.185Z,17.83
2022-10-01T19:11:02.961Z,17.95
2022-10-01T19:13:48.914Z,20.92
2022-10-01T19:16:15.682Z,19.17
2022-10-01T19:19:02.153Z,17.13
2022-10-01T19:21:37.591Z,14.10
2022-10-01T19:24:20.538Z,13.13
2022-10-01T19:27:13.913Z,12.32
2022-10-01T19:29:40.663Z,17.63
2022-10-01T19:32:17.726Z,15.13
2022-10-01T19:34:56.123Z,13.40
2022-10-01T19:38:02.480Z,14.07
2022-10-01T19:40:34.113Z,12.10
2022-10-01T19:43:16.112Z,12.35
2022-10-01T19:45:50.351Z,13.05
2022-10-01T19:48:51.170Z,12.30
2022-10-01T19:51:21.343Z,14.38
2022-10-01T19:53:56.624Z,13.55
2022-10-01T19:56:28.180Z,12.90
2022-10-01T20:01:28.763Z,13.18
2022-10-01T20:04:02.816Z,12.35
2022-10-01T20:06:39.549Z,13.18
2022-10-01T20:09:23.848Z,14.45
2022-10-01T20:12:02.137Z,13.90
2022-10-01T20:15:08.708Z,12.93
2022-10-01T20:17:44.774Z,12.68
2022-10-01T20:20:33.249Z,11.38
2022-10-01T20:23:29.156Z,11.57
2022-10-01T20:26:25.843Z,12.35
2022-10-01T20:29:23.352Z,11.35
2022-10-01T20:32:27.718Z,11.00
2022-10-01T20:35:21.024Z,11.60
2022-10-01T20:37:57.376Z,11.50
2022-10-01T20:40:50.211Z,10.93
2022-10-01T20:43:26.999Z,10.55
2022-10-01T20:45:54.946Z,11.23
2022-10-01T20:48:35.397Z,11.10
2022-10-01T20:51:09.385Z,11.52
2022-10-01T20:53:48.801Z,11.18
2022-10-01T20:56:21.671Z,12.00
2022-10-01T20:59:23.673Z,12.00
2022-10-01T21:02:02.517Z,11.68
2022-10-01T21:04:37.824Z,11.55
2022-10-01T21:08:09.013Z,12.25
2022-10-01T21:10:58.016Z,12.85
2022-10-01T21:13:30.629Z,13.65
2022-10-01T21:16:54.342Z,14.50
2022-10-01T21:19:42.189Z,15.48
2022-10-01T21:22:17.901Z,20.05
2022-10-01T21:24:52.746Z,17.33
2022-10-01T21:27:37.936Z,17.17
2022-10-01T21:30:07.719Z,16.55
2022-10-01T21:33:03.919Z,17.35
2022-10-01T21:35:49.332Z,16.45
2022-10-01T21:38:39.233Z,17.77
2022-10-01T21:41:26.820Z,17.35
2022-10-01T21:44:31.383Z,16.60
2022-10-01T21:47:03.615Z,16.55
2022-10-01T21:50:10.830Z,17.45
2022-10-01T21:52:54.634Z,15.73
2022-10-01T21:55:27.189Z,15.75
2022-10-01T21:58:18.404Z,16.02
2022-10-01T22:01:00.120Z,14.57
2022-10-01T22:03:46.398Z,14.40
2022-10-01T22:06:23.091Z,14.00
2022-10-01T22:09:17.015Z,12.48
2022-10-01T22:11:50.894Z,13.18
2022-10-01T22:14:20.679Z,12.30
2022-10-01T22:16:54.487Z,12.70
2022-10-01T22:19:40.737Z,11.75
2022-10-01T22:22:14.793Z,11.00
2022-10-01T22:24:50.822Z,11.93
2022-10-01T22:27:27.594Z,11.77
2022-10-01T22:30:02.113Z,10.90
2022-10-01T22:32:42.621Z,11.98
2022-10-01T22:35:18.648Z,11.25
2022-10-01T22:38:05.674Z,11.25
2022-10-01T22:40:42.590Z,11.52
2022-10-01T22:43:13.875Z,10.65
2022-10-01T22:45:59.271Z,11.32
2022-10-01T22:48:50.179Z,11.68
2022-10-01T22:51:28.929Z,12.17
2022-10-01T22:54:18.210Z,12.27
2022-10-01T22:56:51.691Z,10.95
2022-10-01T22:59:28.103Z,12.02
2022-10-01T23:02:22.778Z,11.35
2022-10-01T23:04:59.613Z,12.60
2022-10-01T23:07:29.098Z,11.30
2022-10-01T23:10:13.519Z,11.85
2022-10-01T23:12:53.281Z,12.40
2022-10-01T23:15:52.522Z,12.30
2022-10-01T23:18:35.338Z,11.43
2022-10-01T23:21:15.605Z,10.57
2022-10-01T23:23:54.960Z,11.10
2022-10-01T23:26:36.289Z,10.35
2022-10-01T23:29:18.359Z,10.95
2022-10-01T23:31:55.721Z,9.80
2022-10-01T23:34:49.241Z,11.10
2022-10-01T23:37:43.625Z,10.35
2022-10-01T23:40:18.122Z,10.68
2022-10-01T23:42:57.048Z,10.63
2022-10-01T23:45:51.507Z,10.77
2022-10-01T23:48:24.996Z,9.93
2022-10-01T23:51:02.506Z,10.50
2022-10-01T23:54:03.938Z,10.35
2022-10-01T23:56:50.541Z,9.25
2022-10-01T23:59:43.437Z,10.25
